KELZ/ELZ METAR and TAF weather

Enter ICAO airport designator
Station Type Date Time Source
KELZ METAR 2020/07/12 05:56 UTC NOAA

KELZ 120556Z AUTO 27009KT 10SM CLR 17/16 A2978 RMK AO2 SLP075 60000 T01670156 10189 20167 53002


Station Type Date Time Source
KELZ Decoded METAR 2020/07/12 05:56 UTC NOAA

WELLSVILLE MUNICIPAL AIRPORT, NY, United States (KELZ) 42-06N 077-60W 646M
Jul 12, 2020 - 01:56 AM EDT / 2020.07.12 0556 UTC
Wind: from the W (270 degrees) at 10 MPH (9 KT):0
Visibility: 10 mile(s):0
Sky conditions: clear
Temperature: 62.1 F (16.7 C)
Dew Point: 60.1 F (15.6 C)
Relative Humidity: 93%
Pressure (altimeter): 29.78 in. Hg (1008 hPa)
Pressure tendency: 0.01 inches (0.2 hPa) higher than three hours ago
ob: KELZ 120556Z AUTO 27009KT 10SM CLR 17/16 A2978 RMK AO2 SLP075 60000 T01670156 10189 20167 53002
cycle: 6

Station Type Date Time Source
KELZ TAF UTC NOAA

Error!

Example: see airport list